sensor_id;sensor_type;location;lat;lon;timestamp;pressure;altitude;pressure_sealevel;temperature
58929;BMP180;44713;53.378;10.022;2023-02-15T00:01:37;102727.00;;;4.90
58929;BMP180;44713;53.378;10.022;2023-02-15T00:04:04;102729.00;;;4.90
58929;BMP180;44713;53.378;10.022;2023-02-15T00:06:30;102731.00;;;5.00
58929;BMP180;44713;53.378;10.022;2023-02-15T00:08:55;102729.00;;;4.90
58929;BMP180;44713;53.378;10.022;2023-02-15T00:11:21;102725.00;;;5.00
58929;BMP180;44713;53.378;10.022;2023-02-15T00:16:37;102725.00;;;5.00
58929;BMP180;44713;53.378;10.022;2023-02-15T00:19:03;102722.00;;;5.00
58929;BMP180;44713;53.378;10.022;2023-02-15T00:21:30;102725.00;;;5.00
58929;BMP180;44713;53.378;10.022;2023-02-15T00:23:57;102719.00;;;5.00
58929;BMP180;44713;53.378;10.022;2023-02-15T00:26:24;102715.00;;;5.00
58929;BMP180;44713;53.378;10.022;2023-02-15T00:28:49;102717.00;;;5.10
58929;BMP180;44713;53.378;10.022;2023-02-15T00:31:15;102710.00;;;5.10
58929;BMP180;44713;53.378;10.022;2023-02-15T00:33:40;102709.00;;;5.10
58929;BMP180;44713;53.378;10.022;2023-02-15T00:36:07;102709.00;;;5.00
58929;BMP180;44713;53.378;10.022;2023-02-15T00:38:33;102717.00;;;5.10
58929;BMP180;44713;53.378;10.022;2023-02-15T00:41:01;102709.00;;;5.00
58929;BMP180;44713;53.378;10.022;2023-02-15T00:43:29;102699.00;;;5.00
58929;BMP180;44713;53.378;10.022;2023-02-15T00:45:55;102705.00;;;5.00
58929;BMP180;44713;53.378;10.022;2023-02-15T00:48:21;102700.00;;;5.10
58929;BMP180;44713;53.378;10.022;2023-02-15T00:50:59;102709.00;;;5.10
58929;BMP180;44713;53.378;10.022;2023-02-15T00:53:26;102695.00;;;5.10
58929;BMP180;44713;53.378;10.022;2023-02-15T00:55:52;102686.00;;;5.00
58929;BMP180;44713;53.378;10.022;2023-02-15T00:58:17;102689.00;;;5.00
58929;BMP180;44713;53.378;10.022;2023-02-15T01:00:45;102689.00;;;5.00
58929;BMP180;44713;53.378;10.022;2023-02-15T01:03:13;102682.00;;;4.90
58929;BMP180;44713;53.378;10.022;2023-02-15T01:05:38;102681.00;;;5.00
58929;BMP180;44713;53.378;10.022;2023-02-15T01:08:04;102685.00;;;5.00
58929;BMP180;44713;53.378;10.022;2023-02-15T01:10:30;102684.00;;;5.00
58929;BMP180;44713;53.378;10.022;2023-02-15T01:12:55;102678.00;;;5.00
58929;BMP180;44713;53.378;10.022;2023-02-15T01:15:21;102673.00;;;5.00
58929;BMP180;44713;53.378;10.022;2023-02-15T01:17:47;102679.00;;;5.00
58929;BMP180;44713;53.378;10.022;2023-02-15T01:20:19;102679.00;;;5.00
58929;BMP180;44713;53.378;10.022;2023-02-15T01:22:44;102672.00;;;5.00
58929;BMP180;44713;53.378;10.022;2023-02-15T01:25:10;102673.00;;;4.90
58929;BMP180;44713;53.378;10.022;2023-02-15T01:27:35;102669.00;;;5.00
58929;BMP180;44713;53.378;10.022;2023-02-15T01:30:00;102661.00;;;5.00
58929;BMP180;44713;53.378;10.022;2023-02-15T01:32:26;102664.00;;;5.00
58929;BMP180;44713;53.378;10.022;2023-02-15T01:34:52;102654.00;;;5.00
58929;BMP180;44713;53.378;10.022;2023-02-15T01:37:18;102658.00;;;5.00
58929;BMP180;44713;53.378;10.022;2023-02-15T01:39:44;102650.00;;;4.90
58929;BMP180;44713;53.378;10.022;2023-02-15T01:42:10;102652.00;;;4.90
58929;BMP180;44713;53.378;10.022;2023-02-15T01:44:54;102655.00;;;4.80
58929;BMP180;44713;53.378;10.022;2023-02-15T01:47:38;102655.00;;;4.80
58929;BMP180;44713;53.378;10.022;2023-02-15T01:53:08;102634.00;;;4.90
58929;BMP180;44713;53.378;10.022;2023-02-15T01:55:47;102639.00;;;4.80
58929;BMP180;44713;53.378;10.022;2023-02-15T01:58:16;102630.00;;;4.80
58929;BMP180;44713;53.378;10.022;2023-02-15T02:00:42;102638.00;;;4.90
58929;BMP180;44713;53.378;10.022;2023-02-15T02:03:08;102633.00;;;4.90
58929;BMP180;44713;53.378;10.022;2023-02-15T02:05:33;102634.00;;;4.90
58929;BMP180;44713;53.378;10.022;2023-02-15T02:08:01;102631.00;;;4.90
58929;BMP180;44713;53.378;10.022;2023-02-15T02:10:27;102625.00;;;4.90
58929;BMP180;44713;53.378;10.022;2023-02-15T02:12:59;102629.00;;;5.00
58929;BMP180;44713;53.378;10.022;2023-02-15T02:15:53;102623.00;;;4.90
58929;BMP180;44713;53.378;10.022;2023-02-15T02:18:49;102624.00;;;4.70
58929;BMP180;44713;53.378;10.022;2023-02-15T02:21:29;102620.00;;;4.70
58929;BMP180;44713;53.378;10.022;2023-02-15T02:35:08;102601.00;;;4.70
58929;BMP180;44713;53.378;10.022;2023-02-15T02:43:34;102600.00;;;4.60
58929;BMP180;44713;53.378;10.022;2023-02-15T02:46:06;102597.00;;;4.60
58929;BMP180;44713;53.378;10.022;2023-02-15T02:48:34;102593.00;;;4.70
58929;BMP180;44713;53.378;10.022;2023-02-15T02:50:59;102590.00;;;4.70
58929;BMP180;44713;53.378;10.022;2023-02-15T02:53:27;102584.00;;;4.70
58929;BMP180;44713;53.378;10.022;2023-02-15T02:55:56;102593.00;;;4.60
58929;BMP180;44713;53.378;10.022;2023-02-15T02:58:42;102593.00;;;4.60
58929;BMP180;44713;53.378;10.022;2023-02-15T03:01:59;102587.00;;;4.50
58929;BMP180;44713;53.378;10.022;2023-02-15T03:04:35;102581.00;;;4.50
58929;BMP180;44713;53.378;10.022;2023-02-15T03:07:08;102577.00;;;4.60
58929;BMP180;44713;53.378;10.022;2023-02-15T03:09:41;102581.00;;;4.60
58929;BMP180;44713;53.378;10.022;2023-02-15T03:12:20;102569.00;;;4.50
58929;BMP180;44713;53.378;10.022;2023-02-15T03:14:51;102567.00;;;4.50
58929;BMP180;44713;53.378;10.022;2023-02-15T03:17:20;102566.00;;;4.50
58929;BMP180;44713;53.378;10.022;2023-02-15T03:19:50;102572.00;;;4.50
58929;BMP180;44713;53.378;10.022;2023-02-15T03:22:21;102571.00;;;4.50
58929;BMP180;44713;53.378;10.022;2023-02-15T03:25:02;102563.00;;;4.50
58929;BMP180;44713;53.378;10.022;2023-02-15T03:27:36;102560.00;;;4.50
58929;BMP180;44713;53.378;10.022;2023-02-15T03:30:04;102549.00;;;4.40
58929;BMP180;44713;53.378;10.022;2023-02-15T03:32:32;102558.00;;;4.40
58929;BMP180;44713;53.378;10.022;2023-02-15T03:34:58;102553.00;;;4.30
58929;BMP180;44713;53.378;10.022;2023-02-15T03:37:41;102547.00;;;4.40
58929;BMP180;44713;53.378;10.022;2023-02-15T03:40:10;102546.00;;;4.40
58929;BMP180;44713;53.378;10.022;2023-02-15T03:43:08;102538.00;;;4.30
58929;BMP180;44713;53.378;10.022;2023-02-15T03:45:38;102550.00;;;4.40
58929;BMP180;44713;53.378;10.022;2023-02-15T03:48:05;102549.00;;;4.30
58929;BMP180;44713;53.378;10.022;2023-02-15T03:50:33;102540.00;;;4.20
58929;BMP180;44713;53.378;10.022;2023-02-15T03:53:21;102536.00;;;4.20
58929;BMP180;44713;53.378;10.022;2023-02-15T03:55:48;102535.00;;;4.30
58929;BMP180;44713;53.378;10.022;2023-02-15T03:58:14;102532.00;;;4.30
58929;BMP180;44713;53.378;10.022;2023-02-15T04:01:00;102546.00;;;4.20
58929;BMP180;44713;53.378;10.022;2023-02-15T04:04:03;102534.00;;;4.10
58929;BMP180;44713;53.378;10.022;2023-02-15T04:06:31;102539.00;;;4.10
58929;BMP180;44713;53.378;10.022;2023-02-15T04:08:57;102539.00;;;4.10
58929;BMP180;44713;53.378;10.022;2023-02-15T04:11:41;102539.00;;;4.10
58929;BMP180;44713;53.378;10.022;2023-02-15T04:14:06;102527.00;;;4.10
58929;BMP180;44713;53.378;10.022;2023-02-15T04:16:50;102530.00;;;4.10
58929;BMP180;44713;53.378;10.022;2023-02-15T04:19:15;102530.00;;;4.10
58929;BMP180;44713;53.378;10.022;2023-02-15T04:21:59;102526.00;;;4.10
58929;BMP180;44713;53.378;10.022;2023-02-15T04:24:43;102531.00;;;4.20
58929;BMP180;44713;53.378;10.022;2023-02-15T04:27:27;102520.00;;;4.10
58929;BMP180;44713;53.378;10.022;2023-02-15T04:29:53;102520.00;;;4.00
58929;BMP180;44713;53.378;10.022;2023-02-15T04:32:18;102516.00;;;4.00
58929;BMP180;44713;53.378;10.022;2023-02-15T04:34:43;102518.00;;;4.10
58929;BMP180;44713;53.378;10.022;2023-02-15T04:37:09;102526.00;;;3.90
58929;BMP180;44713;53.378;10.022;2023-02-15T04:39:35;102533.00;;;4.00
58929;BMP180;44713;53.378;10.022;2023-02-15T04:42:00;102532.00;;;4.00
58929;BMP180;44713;53.378;10.022;2023-02-15T04:44:26;102526.00;;;3.90
58929;BMP180;44713;53.378;10.022;2023-02-15T04:46:51;102506.00;;;3.90
58929;BMP180;44713;53.378;10.022;2023-02-15T04:49:17;102508.00;;;4.00
58929;BMP180;44713;53.378;10.022;2023-02-15T04:51:42;102513.00;;;3.90
58929;BMP180;44713;53.378;10.022;2023-02-15T04:54:07;102507.00;;;3.90
58929;BMP180;44713;53.378;10.022;2023-02-15T04:56:33;102504.00;;;3.90
58929;BMP180;44713;53.378;10.022;2023-02-15T04:59:00;102500.00;;;3.80
58929;BMP180;44713;53.378;10.022;2023-02-15T05:01:25;102504.00;;;3.70
58929;BMP180;44713;53.378;10.022;2023-02-15T05:03:50;102494.00;;;3.80
58929;BMP180;44713;53.378;10.022;2023-02-15T05:06:16;102498.00;;;3.80
58929;BMP180;44713;53.378;10.022;2023-02-15T05:08:41;102493.00;;;3.80
58929;BMP180;44713;53.378;10.022;2023-02-15T05:11:06;102498.00;;;3.60
58929;BMP180;44713;53.378;10.022;2023-02-15T05:13:32;102494.00;;;3.60
58929;BMP180;44713;53.378;10.022;2023-02-15T05:15:57;102497.00;;;3.70
58929;BMP180;44713;53.378;10.022;2023-02-15T05:18:23;102484.00;;;3.60
58929;BMP180;44713;53.378;10.022;2023-02-15T05:20:48;102498.00;;;3.60
58929;BMP180;44713;53.378;10.022;2023-02-15T05:23:14;102491.00;;;3.60
58929;BMP180;44713;53.378;10.022;2023-02-15T05:25:39;102490.00;;;3.60
58929;BMP180;44713;53.378;10.022;2023-02-15T05:28:25;102488.00;;;3.60
58929;BMP180;44713;53.378;10.022;2023-02-15T05:31:01;102489.00;;;3.60
58929;BMP180;44713;53.378;10.022;2023-02-15T05:33:27;102493.00;;;3.50
58929;BMP180;44713;53.378;10.022;2023-02-15T05:35:52;102478.00;;;3.20
58929;BMP180;44713;53.378;10.022;2023-02-15T05:38:18;102480.00;;;3.30
58929;BMP180;44713;53.378;10.022;2023-02-15T05:40:43;102480.00;;;3.40
58929;BMP180;44713;53.378;10.022;2023-02-15T05:43:08;102467.00;;;3.40
58929;BMP180;44713;53.378;10.022;2023-02-15T05:45:34;102469.00;;;3.30
58929;BMP180;44713;53.378;10.022;2023-02-15T05:47:59;102473.00;;;3.30
58929;BMP180;44713;53.378;10.022;2023-02-15T05:50:25;102467.00;;;3.40
58929;BMP180;44713;53.378;10.022;2023-02-15T05:52:51;102476.00;;;3.30
58929;BMP180;44713;53.378;10.022;2023-02-15T05:55:17;102465.00;;;3.30
58929;BMP180;44713;53.378;10.022;2023-02-15T05:57:43;102470.00;;;3.30
58929;BMP180;44713;53.378;10.022;2023-02-15T06:00:09;102471.00;;;3.30
58929;BMP180;44713;53.378;10.022;2023-02-15T06:02:38;102467.00;;;3.30
58929;BMP180;44713;53.378;10.022;2023-02-15T06:05:05;102457.00;;;3.30
58929;BMP180;44713;53.378;10.022;2023-02-15T06:07:31;102467.00;;;3.30
58929;BMP180;44713;53.378;10.022;2023-02-15T06:09:56;102458.00;;;3.30
58929;BMP180;44713;53.378;10.022;2023-02-15T06:12:21;102458.00;;;3.30
58929;BMP180;44713;53.378;10.022;2023-02-15T06:14:47;102456.00;;;3.20
58929;BMP180;44713;53.378;10.022;2023-02-15T06:17:12;102447.00;;;3.20
58929;BMP180;44713;53.378;10.022;2023-02-15T06:19:37;102457.00;;;3.30
58929;BMP180;44713;53.378;10.022;2023-02-15T06:22:03;102456.00;;;3.20
58929;BMP180;44713;53.378;10.022;2023-02-15T06:24:28;102463.00;;;3.20
58929;BMP180;44713;53.378;10.022;2023-02-15T06:26:54;102461.00;;;3.10
58929;BMP180;44713;53.378;10.022;2023-02-15T06:29:19;102463.00;;;3.10
58929;BMP180;44713;53.378;10.022;2023-02-15T06:31:44;102464.00;;;3.20
58929;BMP180;44713;53.378;10.022;2023-02-15T06:34:10;102461.00;;;3.10
58929;BMP180;44713;53.378;10.022;2023-02-15T06:36:35;102464.00;;;3.10
58929;BMP180;44713;53.378;10.022;2023-02-15T06:39:02;102465.00;;;3.10
58929;BMP180;44713;53.378;10.022;2023-02-15T06:41:28;102466.00;;;3.10
58929;BMP180;44713;53.378;10.022;2023-02-15T06:43:53;102467.00;;;3.10
58929;BMP180;44713;53.378;10.022;2023-02-15T06:46:18;102472.00;;;3.10
58929;BMP180;44713;53.378;10.022;2023-02-15T06:48:44;102477.00;;;3.10
58929;BMP180;44713;53.378;10.022;2023-02-15T06:51:09;102477.00;;;3.20
58929;BMP180;44713;53.378;10.022;2023-02-15T06:53:35;102469.00;;;3.20
58929;BMP180;44713;53.378;10.022;2023-02-15T06:56:06;102469.00;;;3.20
58929;BMP180;44713;53.378;10.022;2023-02-15T06:58:37;102464.00;;;3.20
58929;BMP180;44713;53.378;10.022;2023-02-15T07:01:03;102469.00;;;3.10
58929;BMP180;44713;53.378;10.022;2023-02-15T07:03:29;102468.00;;;3.00
58929;BMP180;44713;53.378;10.022;2023-02-15T07:05:56;102474.00;;;2.90
58929;BMP180;44713;53.378;10.022;2023-02-15T07:08:22;102467.00;;;2.90
58929;BMP180;44713;53.378;10.022;2023-02-15T07:10:51;102467.00;;;2.90
58929;BMP180;44713;53.378;10.022;2023-02-15T07:13:17;102466.00;;;2.90
58929;BMP180;44713;53.378;10.022;2023-02-15T07:15:43;102468.00;;;3.00
58929;BMP180;44713;53.378;10.022;2023-02-15T07:18:09;102454.00;;;2.90
58929;BMP180;44713;53.378;10.022;2023-02-15T07:20:36;102455.00;;;3.00
58929;BMP180;44713;53.378;10.022;2023-02-15T07:23:02;102446.00;;;3.00
58929;BMP180;44713;53.378;10.022;2023-02-15T07:25:27;102454.00;;;3.00
58929;BMP180;44713;53.378;10.022;2023-02-15T07:27:57;102447.00;;;3.00
58929;BMP180;44713;53.378;10.022;2023-02-15T07:30:23;102446.00;;;3.00
58929;BMP180;44713;53.378;10.022;2023-02-15T07:32:49;102442.00;;;3.00
58929;BMP180;44713;53.378;10.022;2023-02-15T07:35:37;102455.00;;;3.00
58929;BMP180;44713;53.378;10.022;2023-02-15T07:38:02;102461.00;;;3.00
58929;BMP180;44713;53.378;10.022;2023-02-15T07:40:28;102453.00;;;3.00
58929;BMP180;44713;53.378;10.022;2023-02-15T07:42:53;102450.00;;;2.90
58929;BMP180;44713;53.378;10.022;2023-02-15T07:45:20;102444.00;;;2.90
58929;BMP180;44713;53.378;10.022;2023-02-15T07:47:46;102435.00;;;3.00
58929;BMP180;44713;53.378;10.022;2023-02-15T07:50:12;102434.00;;;2.90
58929;BMP180;44713;53.378;10.022;2023-02-15T07:52:37;102432.00;;;2.90
58929;BMP180;44713;53.378;10.022;2023-02-15T07:55:03;102427.00;;;2.90
58929;BMP180;44713;53.378;10.022;2023-02-15T07:57:29;102425.00;;;3.00
58929;BMP180;44713;53.378;10.022;2023-02-15T07:59:54;102416.00;;;3.00
58929;BMP180;44713;53.378;10.022;2023-02-15T08:02:19;102405.00;;;3.00
58929;BMP180;44713;53.378;10.022;2023-02-15T08:04:45;102411.00;;;3.00
58929;BMP180;44713;53.378;10.022;2023-02-15T08:07:10;102403.00;;;3.00
58929;BMP180;44713;53.378;10.022;2023-02-15T08:09:35;102401.00;;;2.90
58929;BMP180;44713;53.378;10.022;2023-02-15T08:12:01;102399.00;;;3.00
58929;BMP180;44713;53.378;10.022;2023-02-15T08:14:27;102408.00;;;3.10
58929;BMP180;44713;53.378;10.022;2023-02-15T08:16:59;102407.00;;;2.90
58929;BMP180;44713;53.378;10.022;2023-02-15T08:19:32;102404.00;;;3.00
58929;BMP180;44713;53.378;10.022;2023-02-15T08:22:02;102409.00;;;2.90
58929;BMP180;44713;53.378;10.022;2023-02-15T08:24:31;102410.00;;;2.90
58929;BMP180;44713;53.378;10.022;2023-02-15T08:26:57;102419.00;;;2.90
58929;BMP180;44713;53.378;10.022;2023-02-15T08:29:26;102431.00;;;3.00
58929;BMP180;44713;53.378;10.022;2023-02-15T08:31:58;102409.00;;;3.00
58929;BMP180;44713;53.378;10.022;2023-02-15T08:34:28;102422.00;;;3.00
58929;BMP180;44713;53.378;10.022;2023-02-15T08:37:02;102414.00;;;3.00
58929;BMP180;44713;53.378;10.022;2023-02-15T08:39:27;102407.00;;;3.10
58929;BMP180;44713;53.378;10.022;2023-02-15T08:41:53;102419.00;;;3.10
58929;BMP180;44713;53.378;10.022;2023-02-15T08:44:19;102412.00;;;3.10
58929;BMP180;44713;53.378;10.022;2023-02-15T08:46:47;102413.00;;;3.20
58929;BMP180;44713;53.378;10.022;2023-02-15T08:49:20;102412.00;;;3.20
58929;BMP180;44713;53.378;10.022;2023-02-15T08:51:46;102401.00;;;3.20
58929;BMP180;44713;53.378;10.022;2023-02-15T08:54:15;102401.00;;;3.30
58929;BMP180;44713;53.378;10.022;2023-02-15T08:56:42;102399.00;;;3.30
58929;BMP180;44713;53.378;10.022;2023-02-15T08:59:13;102398.00;;;3.40
58929;BMP180;44713;53.378;10.022;2023-02-15T09:01:39;102395.00;;;3.50
58929;BMP180;44713;53.378;10.022;2023-02-15T09:04:06;102395.00;;;3.40
58929;BMP180;44713;53.378;10.022;2023-02-15T09:06:34;102384.00;;;3.40
58929;BMP180;44713;53.378;10.022;2023-02-15T09:09:00;102392.00;;;3.40
58929;BMP180;44713;53.378;10.022;2023-02-15T09:11:28;102384.00;;;3.30
58929;BMP180;44713;53.378;10.022;2023-02-15T09:13:56;102373.00;;;3.10
58929;BMP180;44713;53.378;10.022;2023-02-15T09:16:24;102382.00;;;3.40
58929;BMP180;44713;53.378;10.022;2023-02-15T09:18:51;102382.00;;;3.50
58929;BMP180;44713;53.378;10.022;2023-02-15T09:21:18;102387.00;;;3.60
58929;BMP180;44713;53.378;10.022;2023-02-15T09:23:46;102385.00;;;3.60
58929;BMP180;44713;53.378;10.022;2023-02-15T09:26:14;102392.00;;;3.70
58929;BMP180;44713;53.378;10.022;2023-02-15T09:28:40;102392.00;;;3.70
58929;BMP180;44713;53.378;10.022;2023-02-15T09:33:34;102401.00;;;3.80
58929;BMP180;44713;53.378;10.022;2023-02-15T09:36:00;102385.00;;;4.00
58929;BMP180;44713;53.378;10.022;2023-02-15T09:38:26;102395.00;;;4.00
58929;BMP180;44713;53.378;10.022;2023-02-15T09:41:18;102382.00;;;4.20
58929;BMP180;44713;53.378;10.022;2023-02-15T09:46:59;102371.00;;;4.00
58929;BMP180;44713;53.378;10.022;2023-02-15T09:50:14;102369.00;;;4.10
58929;BMP180;44713;53.378;10.022;2023-02-15T09:52:35;102364.00;;;4.20
58929;BMP180;44713;53.378;10.022;2023-02-15T09:55:33;102366.00;;;4.40
58929;BMP180;44713;53.378;10.022;2023-02-15T10:03:43;102360.00;;;4.70
58929;BMP180;44713;53.378;10.022;2023-02-15T10:06:42;102365.00;;;4.70
58929;BMP180;44713;53.378;10.022;2023-02-15T10:09:30;102364.00;;;4.70
58929;BMP180;44713;53.378;10.022;2023-02-15T10:12:26;102359.00;;;4.90
58929;BMP180;44713;53.378;10.022;2023-02-15T10:15:49;102362.00;;;4.90
58929;BMP180;44713;53.378;10.022;2023-02-15T10:18:04;102357.00;;;5.00
58929;BMP180;44713;53.378;10.022;2023-02-15T10:20:44;102362.00;;;4.70
58929;BMP180;44713;53.378;10.022;2023-02-15T10:23:45;102363.00;;;4.90
58929;BMP180;44713;53.378;10.022;2023-02-15T10:26:20;102362.00;;;5.10
58929;BMP180;44713;53.378;10.022;2023-02-15T10:28:56;102360.00;;;5.30
58929;BMP180;44713;53.378;10.022;2023-02-15T10:39:49;102362.00;;;5.60
58929;BMP180;44713;53.378;10.022;2023-02-15T10:50:30;102352.00;;;6.30
58929;BMP180;44713;53.378;10.022;2023-02-15T10:58:31;102344.00;;;6.70
58929;BMP180;44713;53.378;10.022;2023-02-15T11:03:47;102339.00;;;6.90
58929;BMP180;44713;53.378;10.022;2023-02-15T11:06:18;102340.00;;;7.10
58929;BMP180;44713;53.378;10.022;2023-02-15T11:08:47;102332.00;;;7.20
58929;BMP180;44713;53.378;10.022;2023-02-15T11:11:40;102327.00;;;7.20
58929;BMP180;44713;53.378;10.022;2023-02-15T11:14:20;102332.00;;;7.30
58929;BMP180;44713;53.378;10.022;2023-02-15T11:16:50;102327.00;;;7.30
58929;BMP180;44713;53.378;10.022;2023-02-15T11:19:24;102330.00;;;7.50
58929;BMP180;44713;53.378;10.022;2023-02-15T11:21:54;102340.00;;;7.70
58929;BMP180;44713;53.378;10.022;2023-02-15T11:24:26;102321.00;;;7.70
58929;BMP180;44713;53.378;10.022;2023-02-15T11:27:01;102326.00;;;8.00
58929;BMP180;44713;53.378;10.022;2023-02-15T11:29:41;102305.00;;;8.10
58929;BMP180;44713;53.378;10.022;2023-02-15T11:32:26;102311.00;;;8.30
58929;BMP180;44713;53.378;10.022;2023-02-15T11:37:49;102291.00;;;8.50
58929;BMP180;44713;53.378;10.022;2023-02-15T11:40:25;102289.00;;;8.70
58929;BMP180;44713;53.378;10.022;2023-02-15T11:42:55;102288.00;;;8.80
58929;BMP180;44713;53.378;10.022;2023-02-15T11:45:41;102278.00;;;8.50
58929;BMP180;44713;53.378;10.022;2023-02-15T11:48:14;102280.00;;;8.60
58929;BMP180;44713;53.378;10.022;2023-02-15T11:50:42;102280.00;;;8.80
58929;BMP180;44713;53.378;10.022;2023-02-15T11:53:21;102277.00;;;9.00
58929;BMP180;44713;53.378;10.022;2023-02-15T11:55:50;102272.00;;;8.90
58929;BMP180;44713;53.378;10.022;2023-02-15T11:58:28;102270.00;;;9.10
58929;BMP180;44713;53.378;10.022;2023-02-15T12:01:04;102274.00;;;9.20
58929;BMP180;44713;53.378;10.022;2023-02-15T12:03:40;102268.00;;;9.10
58929;BMP180;44713;53.378;10.022;2023-02-15T12:06:15;102260.00;;;8.90
58929;BMP180;44713;53.378;10.022;2023-02-15T12:08:48;102262.00;;;9.10
58929;BMP180;44713;53.378;10.022;2023-02-15T12:11:19;102244.00;;;9.30
58929;BMP180;44713;53.378;10.022;2023-02-15T12:14:04;102239.00;;;9.50
58929;BMP180;44713;53.378;10.022;2023-02-15T12:16:32;102238.00;;;9.70
58929;BMP180;44713;53.378;10.022;2023-02-15T12:19:00;102233.00;;;9.70
58929;BMP180;44713;53.378;10.022;2023-02-15T12:21:33;102229.00;;;9.90
58929;BMP180;44713;53.378;10.022;2023-02-15T12:24:21;102236.00;;;9.90
58929;BMP180;44713;53.378;10.022;2023-02-15T12:27:03;102224.00;;;9.80
58929;BMP180;44713;53.378;10.022;2023-02-15T12:29:53;102226.00;;;10.00
58929;BMP180;44713;53.378;10.022;2023-02-15T12:32:29;102227.00;;;10.10
58929;BMP180;44713;53.378;10.022;2023-02-15T12:35:08;102225.00;;;10.30
58929;BMP180;44713;53.378;10.022;2023-02-15T12:37:34;102219.00;;;10.50
58929;BMP180;44713;53.378;10.022;2023-02-15T12:40:18;102220.00;;;10.50
58929;BMP180;44713;53.378;10.022;2023-02-15T12:42:44;102207.00;;;10.60
58929;BMP180;44713;53.378;10.022;2023-02-15T12:45:30;102207.00;;;10.70
58929;BMP180;44713;53.378;10.022;2023-02-15T12:48:14;102201.00;;;10.90
58929;BMP180;44713;53.378;10.022;2023-02-15T12:50:50;102204.00;;;11.10
58929;BMP180;44713;53.378;10.022;2023-02-15T12:53:31;102202.00;;;11.20
58929;BMP180;44713;53.378;10.022;2023-02-15T12:55:59;102200.00;;;11.30
58929;BMP180;44713;53.378;10.022;2023-02-15T12:58:52;102191.00;;;11.10
58929;BMP180;44713;53.378;10.022;2023-02-15T13:01:31;102191.00;;;11.10
58929;BMP180;44713;53.378;10.022;2023-02-15T13:04:03;102198.00;;;11.20
58929;BMP180;44713;53.378;10.022;2023-02-15T13:06:33;102189.00;;;11.40
58929;BMP180;44713;53.378;10.022;2023-02-15T13:09:19;102189.00;;;11.50
58929;BMP180;44713;53.378;10.022;2023-02-15T13:11:46;102188.00;;;11.60
58929;BMP180;44713;53.378;10.022;2023-02-15T13:14:20;102187.00;;;11.70
58929;BMP180;44713;53.378;10.022;2023-02-15T13:16:48;102178.00;;;11.70
58929;BMP180;44713;53.378;10.022;2023-02-15T13:19:37;102178.00;;;11.60
58929;BMP180;44713;53.378;10.022;2023-02-15T13:22:10;102181.00;;;11.70
58929;BMP180;44713;53.378;10.022;2023-02-15T13:24:45;102178.00;;;11.70
58929;BMP180;44713;53.378;10.022;2023-02-15T13:27:18;102178.00;;;11.50
58929;BMP180;44713;53.378;10.022;2023-02-15T13:29:46;102178.00;;;11.60
58929;BMP180;44713;53.378;10.022;2023-02-15T13:32:32;102177.00;;;11.40
58929;BMP180;44713;53.378;10.022;2023-02-15T13:34:59;102176.00;;;11.40
58929;BMP180;44713;53.378;10.022;2023-02-15T13:38:02;102170.00;;;11.60
58929;BMP180;44713;53.378;10.022;2023-02-15T13:40:37;102173.00;;;11.70
58929;BMP180;44713;53.378;10.022;2023-02-15T13:46:13;102164.00;;;11.80
58929;BMP180;44713;53.378;10.022;2023-02-15T13:49:09;102162.00;;;11.60
58929;BMP180;44713;53.378;10.022;2023-02-15T13:51:41;102170.00;;;11.20
58929;BMP180;44713;53.378;10.022;2023-02-15T14:00:20;102157.00;;;11.20
58929;BMP180;44713;53.378;10.022;2023-02-15T14:05:57;102138.00;;;11.30
58929;BMP180;44713;53.378;10.022;2023-02-15T14:09:00;102145.00;;;11.20
58929;BMP180;44713;53.378;10.022;2023-02-15T14:14:11;102142.00;;;11.30
58929;BMP180;44713;53.378;10.022;2023-02-15T14:17:05;102134.00;;;11.40
58929;BMP180;44713;53.378;10.022;2023-02-15T14:22:48;102127.00;;;11.50
58929;BMP180;44713;53.378;10.022;2023-02-15T14:25:54;102125.00;;;11.50
58929;BMP180;44713;53.378;10.022;2023-02-15T14:31:12;102129.00;;;11.40
58929;BMP180;44713;53.378;10.022;2023-02-15T14:33:40;102128.00;;;11.40
58929;BMP180;44713;53.378;10.022;2023-02-15T14:36:11;102128.00;;;11.40
58929;BMP180;44713;53.378;10.022;2023-02-15T14:38:54;102131.00;;;11.40
58929;BMP180;44713;53.378;10.022;2023-02-15T14:41:48;102127.00;;;11.40
58929;BMP180;44713;53.378;10.022;2023-02-15T14:44:33;102119.00;;;11.30
58929;BMP180;44713;53.378;10.022;2023-02-15T14:47:15;102127.00;;;11.20
58929;BMP180;44713;53.378;10.022;2023-02-15T14:49:44;102126.00;;;11.10
58929;BMP180;44713;53.378;10.022;2023-02-15T14:52:10;102132.00;;;11.10
58929;BMP180;44713;53.378;10.022;2023-02-15T14:59:40;102121.00;;;11.10
58929;BMP180;44713;53.378;10.022;2023-02-15T15:07:20;102129.00;;;11.00
58929;BMP180;44713;53.378;10.022;2023-02-15T15:09:58;102127.00;;;10.90
58929;BMP180;44713;53.378;10.022;2023-02-15T15:14:51;102144.00;;;10.80
58929;BMP180;44713;53.378;10.022;2023-02-15T15:20:41;102138.00;;;10.70
58929;BMP180;44713;53.378;10.022;2023-02-15T15:22:46;102137.00;;;10.60
58929;BMP180;44713;53.378;10.022;2023-02-15T15:28:02;102150.00;;;9.90
58929;BMP180;44713;53.378;10.022;2023-02-15T15:32:57;102143.00;;;9.90
58929;BMP180;44713;53.378;10.022;2023-02-15T15:35:36;102141.00;;;9.70
58929;BMP180;44713;53.378;10.022;2023-02-15T15:49:19;102133.00;;;9.60
58929;BMP180;44713;53.378;10.022;2023-02-15T15:51:45;102131.00;;;9.60
58929;BMP180;44713;53.378;10.022;2023-02-15T15:54:20;102125.00;;;9.60
58929;BMP180;44713;53.378;10.022;2023-02-15T15:56:49;102127.00;;;9.50
58929;BMP180;44713;53.378;10.022;2023-02-15T15:59:19;102118.00;;;9.30
58929;BMP180;44713;53.378;10.022;2023-02-15T16:01:46;102120.00;;;9.20
58929;BMP180;44713;53.378;10.022;2023-02-15T16:04:13;102120.00;;;9.10
58929;BMP180;44713;53.378;10.022;2023-02-15T16:06:46;102132.00;;;9.00
58929;BMP180;44713;53.378;10.022;2023-02-15T16:09:20;102132.00;;;8.90
58929;BMP180;44713;53.378;10.022;2023-02-15T16:11:52;102122.00;;;8.80
58929;BMP180;44713;53.378;10.022;2023-02-15T16:14:26;102114.00;;;8.90